Time;durP1;ratioP1;P1;durP2;ratioP2;P2;SDS_P1;SDS_P2;PMS_P1;PMS_P2;Temp;Humidity;BMP_temperature;BMP_pressure;BME280_temperature;BME280_humidity;BME280_pressure;Samples;Min_cycle;Max_cycle;Signal;HPM_P1;HPM_P2
2023/08/26 00:01:58;;;;;;;22.70;13.75;;;;;;;18.06;98.45;100856.63;5095534;28;20058;-62
2023/08/26 00:04:23;;;;;;;18.73;12.95;;;;;;;18.03;97.46;100859.38;5095479;28;20028;-62
2023/08/26 00:06:49;;;;;;;18.65;13.10;;;;;;;17.98;97.03;100861.25;5095448;28;20031;-62
2023/08/26 00:09:15;;;;;;;20.42;13.32;;;;;;;17.96;96.46;100860.41;5095598;28;20390;-62
2023/08/26 00:11:41;;;;;;;18.77;12.95;;;;;;;17.93;97.19;100863.13;5095401;28;20373;-63
2023/08/26 00:14:06;;;;;;;18.70;13.48;;;;;;;17.90;97.28;100866.75;5095231;28;20047;-62
2023/08/26 00:16:32;;;;;;;18.83;13.52;;;;;;;17.85;96.62;100868.63;5095253;28;20385;-63
2023/08/26 00:19:01;;;;;;;16.48;11.60;;;;;;;17.78;95.18;100861.66;5095018;28;20120;-62
2023/08/26 00:21:27;;;;;;;16.40;11.85;;;;;;;17.72;96.09;100867.06;5077921;28;20093;-62
2023/08/26 00:23:52;;;;;;;17.80;11.57;;;;;;;17.60;95.74;100867.25;5095210;28;20031;-62
2023/08/26 00:26:18;;;;;;;12.95;9.13;;;;;;;17.46;92.98;100863.06;5095095;28;20462;-62
2023/08/26 00:28:44;;;;;;;13.02;8.55;;;;;;;17.40;92.73;100872.97;5095083;28;20044;-63
2023/08/26 00:31:09;;;;;;;13.43;8.70;;;;;;;17.33;92.80;100868.63;5095039;28;20490;-62
2023/08/26 00:33:34;;;;;;;14.23;8.30;;;;;;;17.32;91.99;100869.56;5094935;28;20119;-62
2023/08/26 00:36:00;;;;;;;14.70;8.13;;;;;;;17.26;91.78;100867.88;5094922;28;20032;-61
2023/08/26 00:38:27;;;;;;;16.50;7.80;;;;;;;17.16;92.05;100869.78;5094841;28;20482;-62
2023/08/26 00:40:53;;;;;;;15.23;7.43;;;;;;;17.20;92.90;100882.19;5095039;28;20503;-61
2023/08/26 00:43:19;;;;;;;12.82;7.00;;;;;;;17.17;92.04;100873.34;5076416;28;20470;-62
2023/08/26 00:45:46;;;;;;;13.82;6.47;;;;;;;17.08;91.87;100879.69;5094787;28;20030;-62
2023/08/26 00:48:12;;;;;;;12.50;6.15;;;;;;;17.04;91.83;100872.63;5094624;28;20069;-62
2023/08/26 00:50:39;;;;;;;11.73;6.40;;;;;;;17.02;91.54;100875.34;5094661;28;20501;-62
2023/08/26 00:53:06;;;;;;;9.82;6.38;;;;;;;16.96;91.50;100871.91;5094849;28;20104;-62
2023/08/26 00:55:32;;;;;;;9.43;5.60;;;;;;;16.94;91.99;100881.72;5094717;28;20036;-62
2023/08/26 00:57:58;;;;;;;10.75;5.95;;;;;;;16.96;92.71;100872.78;5076300;28;20452;-62
2023/08/26 01:00:25;;;;;;;10.63;5.90;;;;;;;16.90;92.09;100880.00;5094491;28;20032;-62
2023/08/26 01:02:50;;;;;;;9.70;5.95;;;;;;;16.86;92.92;100876.47;5094646;28;20454;-61
2023/08/26 01:05:16;;;;;;;12.60;5.38;;;;;;;16.85;92.18;100879.19;5094402;28;20047;-62
2023/08/26 01:07:42;;;;;;;10.45;5.45;;;;;;;16.74;92.44;100882.91;5094406;28;20129;-62
2023/08/26 01:10:08;;;;;;;10.52;4.55;;;;;;;16.67;92.33;100882.97;5094116;28;20055;-62
2023/08/26 01:12:59;;;;;;;12.32;4.80;;;;;;;16.55;92.34;100880.44;5094263;28;20024;-62
2023/08/26 01:15:27;;;;;;;12.77;4.75;;;;;;;16.43;92.19;100885.03;5082243;28;20071;-61
2023/08/26 01:17:53;;;;;;;10.85;4.50;;;;;;;16.35;91.63;100883.38;5093916;28;20044;-61
2023/08/26 01:20:20;;;;;;;9.00;4.10;;;;;;;16.25;91.88;100879.94;5094121;28;20106;-62
2023/08/26 01:22:46;;;;;;;9.45;4.18;;;;;;;16.16;91.57;100874.72;5094008;28;20024;-61
2023/08/26 01:25:12;;;;;;;9.07;4.03;;;;;;;16.07;91.88;100883.69;5093966;28;20070;-62
2023/08/26 01:27:38;;;;;;;8.82;3.88;;;;;;;16.00;91.72;100884.66;5094189;28;20047;-62
2023/08/26 01:30:05;;;;;;;11.60;3.80;;;;;;;15.99;92.88;100880.25;5093873;28;20408;-62
2023/08/26 01:32:48;;;;;;;10.73;4.13;;;;;;;15.90;92.04;100893.66;5093207;28;20024;-61
2023/08/26 01:35:23;;;;;;;6.65;3.58;;;;;;;15.80;92.58;100879.53;5093860;28;20116;-62
2023/08/26 01:37:51;;;;;;;10.52;3.75;;;;;;;15.76;92.29;100891.16;5093573;28;20523;-62
2023/08/26 01:40:18;;;;;;;9.88;3.78;;;;;;;15.71;92.41;100887.63;5093874;28;20085;-62
2023/08/26 01:42:45;;;;;;;9.68;3.70;;;;;;;15.70;92.89;100896.50;5093441;28;20027;-61
2023/08/26 01:45:14;;;;;;;11.38;3.72;;;;;;;15.56;93.02;100890.41;5075415;28;20032;-61
2023/08/26 01:47:39;;;;;;;8.50;3.90;;;;;;;15.56;92.82;100891.28;5093565;28;20063;-61
2023/08/26 01:50:05;;;;;;;9.73;3.70;;;;;;;15.50;93.24;100893.97;5093788;28;20052;-61
2023/08/26 01:52:30;;;;;;;8.20;3.65;;;;;;;15.49;93.15;100895.78;5093502;28;20024;-61
2023/08/26 01:54:56;;;;;;;5.15;3.13;;;;;;;15.48;93.29;100885.16;5093560;28;20462;-62
2023/08/26 01:57:21;;;;;;;9.77;3.45;;;;;;;15.42;92.88;100894.06;5093454;28;20520;-62
2023/08/26 01:59:47;;;;;;;8.07;3.50;;;;;;;15.39;93.31;100894.09;5093158;28;20054;-62
2023/08/26 02:02:13;;;;;;;7.25;3.60;;;;;;;15.42;93.44;100898.53;5093210;28;20028;-62
2023/08/26 02:04:39;;;;;;;10.48;3.40;;;;;;;15.34;92.74;100895.03;5093410;28;20034;-62
2023/08/26 02:07:04;;;;;;;7.00;3.53;;;;;;;15.23;92.95;100893.31;5093525;28;20016;-61
2023/08/26 02:09:30;;;;;;;9.70;3.50;;;;;;;15.30;93.45;100894.19;5093201;28;20385;-61
2023/08/26 02:11:55;;;;;;;11.90;4.03;;;;;;;15.23;92.77;100900.44;5093530;28;20119;-62
2023/08/26 02:14:21;;;;;;;9.30;3.80;;;;;;;15.20;92.90;100892.47;5093120;28;20454;-61
2023/08/26 02:16:46;;;;;;;15.43;3.40;;;;;;;15.14;93.83;100889.84;5093158;28;20028;-62
2023/08/26 02:19:11;;;;;;;8.20;3.50;;;;;;;15.08;93.47;100887.25;5092887;28;20058;-62
2023/08/26 02:21:37;;;;;;;7.80;3.30;;;;;;;15.06;94.04;100894.34;5093107;28;20043;-61
2023/08/26 02:24:02;;;;;;;6.70;3.10;;;;;;;15.04;93.25;100883.72;5092946;28;20158;-62
2023/08/26 02:26:28;;;;;;;7.20;3.15;;;;;;;15.05;93.65;100881.94;5093134;28;20028;-62
2023/08/26 02:28:53;;;;;;;6.43;3.03;;;;;;;15.11;93.74;100890.75;5093247;28;20547;-62
2023/08/26 02:31:19;;;;;;;7.45;3.17;;;;;;;15.10;93.26;100888.97;5092966;28;20104;-62
2023/08/26 02:33:45;;;;;;;8.90;3.50;;;;;;;14.96;92.59;100881.09;5092919;28;20024;-62
2023/08/26 02:36:11;;;;;;;8.60;3.13;;;;;;;14.96;93.52;100885.53;5093284;28;20017;-62
2023/08/26 02:38:36;;;;;;;8.18;3.15;;;;;;;14.96;93.72;100875.78;5092938;28;20117;-62
2023/08/26 02:41:02;;;;;;;7.25;3.22;;;;;;;14.93;93.13;100890.88;5092917;28;20474;-61
2023/08/26 02:43:27;;;;;;;9.45;3.30;;;;;;;14.79;93.52;100883.00;5092748;28;20028;-61
2023/08/26 02:45:54;;;;;;;9.10;3.40;;;;;;;14.81;95.34;100881.19;5092914;28;20029;-61
2023/08/26 02:48:20;;;;;;;7.75;3.55;;;;;;;14.78;94.35;100879.44;5093153;28;20024;-62
2023/08/26 02:50:46;;;;;;;8.13;3.28;;;;;;;14.82;95.29;100882.97;5093063;28;20029;-62
2023/08/26 02:53:11;;;;;;;10.15;3.33;;;;;;;14.74;94.41;100877.69;5092728;28;20386;-62
2023/08/26 02:55:37;;;;;;;7.63;3.30;;;;;;;14.64;94.28;100880.41;5092753;28;20381;-61
2023/08/26 02:58:02;;;;;;;6.28;3.45;;;;;;;14.56;94.28;100879.56;5092786;28;20043;-62
2023/08/26 03:00:28;;;;;;;5.85;3.17;;;;;;;14.47;95.13;100872.47;5058156;28;20039;-61
2023/08/26 03:02:53;;;;;;;10.00;3.25;;;;;;;14.44;95.58;100878.72;5093064;28;20028;-62
2023/08/26 03:05:19;;;;;;;7.07;3.30;;;;;;;14.39;95.59;100876.94;5092783;28;20425;-62
2023/08/26 03:07:44;;;;;;;6.15;3.15;;;;;;;14.42;96.27;100882.25;5092719;28;20028;-61
2023/08/26 03:10:09;;;;;;;11.77;3.30;;;;;;;14.40;95.21;100886.72;5092751;28;20390;-62
2023/08/26 03:12:35;;;;;;;12.25;3.45;;;;;;;14.43;96.05;100887.59;5093677;28;20031;-62
2023/08/26 03:15:00;;;;;;;7.15;3.08;;;;;;;14.40;95.36;100882.28;5096360;28;20028;-62
2023/08/26 03:17:26;;;;;;;10.82;3.55;;;;;;;14.33;95.67;100880.53;5078182;28;20027;-62
2023/08/26 03:19:51;;;;;;;13.85;3.70;;;;;;;14.25;96.37;100884.97;5096517;28;20036;-61
2023/08/26 03:22:17;;;;;;;11.50;3.53;;;;;;;14.26;96.26;100892.06;5096347;28;20462;-62
2023/08/26 03:24:42;;;;;;;8.48;3.35;;;;;;;14.27;96.25;100885.88;5096525;28;20035;-61
2023/08/26 03:27:07;;;;;;;6.80;3.28;;;;;;;14.26;95.81;100881.41;5096289;28;20028;-61
2023/08/26 03:29:33;;;;;;;7.82;3.20;;;;;;;14.29;95.83;100884.97;5096252;28;20501;-62
2023/08/26 03:31:58;;;;;;;10.93;3.40;;;;;;;14.25;95.55;100896.50;5096212;28;20032;-61
2023/08/26 03:34:23;;;;;;;6.32;3.20;;;;;;;14.20;95.82;100898.28;5096179;28;20106;-61
2023/08/26 03:36:49;;;;;;;9.60;3.15;;;;;;;14.19;96.05;100898.31;5096119;28;20160;-62
2023/08/26 03:39:14;;;;;;;9.23;3.45;;;;;;;14.19;96.15;100893.00;5096219;28;20039;-62
2023/08/26 03:41:39;;;;;;;12.00;3.40;;;;;;;14.18;96.09;100893.88;5096008;28;20032;-60
2023/08/26 03:44:05;;;;;;;7.47;3.10;;;;;;;14.16;95.89;100896.53;5095796;28;20032;-62
2023/08/26 03:46:31;;;;;;;11.02;3.30;;;;;;;14.14;96.46;100902.75;5096194;28;20603;-62
2023/08/26 03:48:56;;;;;;;8.98;3.08;;;;;;;14.16;96.42;100890.34;5096147;28;20051;-61
2023/08/26 03:51:21;;;;;;;9.52;3.28;;;;;;;14.14;96.26;100908.06;5095831;28;20481;-61
2023/08/26 03:53:48;;;;;;;6.78;2.90;;;;;;;14.09;96.89;100900.13;5095591;28;20493;-62
2023/08/26 03:56:13;;;;;;;7.25;3.50;;;;;;;13.97;96.99;100897.47;5095662;28;20505;-62
2023/08/26 03:58:39;;;;;;;9.85;3.20;;;;;;;13.86;97.17;100904.56;5095932;28;20028;-61
2023/08/26 04:01:05;;;;;;;7.50;3.25;;;;;;;13.80;98.20;100908.13;5095888;28;20044;-61
2023/08/26 04:03:31;;;;;;;7.97;3.33;;;;;;;13.75;98.54;100902.84;5095875;28;20534;-61
2023/08/26 04:05:59;;;;;;;10.38;3.38;;;;;;;13.65;98.69;100902.84;5095778;28;20024;-62
2023/08/26 04:08:24;;;;;;;9.30;3.35;;;;;;;13.62;99.31;100908.13;5095337;28;20106;-62
2023/08/26 04:10:53;;;;;;;9.90;3.15;;;;;;;13.58;99.36;100907.28;5077671;28;20040;-62
2023/08/26 04:13:22;;;;;;;6.88;3.10;;;;;;;13.57;99.24;100912.56;5095187;28;20024;-62
2023/08/26 04:15:47;;;;;;;7.07;3.30;;;;;;;13.61;99.53;100915.22;5095241;28;20020;-62
2023/08/26 04:18:13;;;;;;;6.30;3.25;;;;;;;13.58;99.42;100909.94;5095264;28;20044;-63
2023/08/26 04:20:39;;;;;;;8.00;3.42;;;;;;;13.57;99.52;100912.56;5095504;28;20028;-62
2023/08/26 04:23:04;;;;;;;8.95;3.13;;;;;;;13.54;99.75;100924.09;5094744;28;20051;-62
2023/08/26 04:25:29;;;;;;;9.27;3.33;;;;;;;13.52;99.66;100926.72;5095069;28;20024;-61
2023/08/26 04:27:55;;;;;;;6.90;3.17;;;;;;;13.44;100.00;100924.97;5095195;28;20024;-61
2023/08/26 04:30:20;;;;;;;7.40;3.33;;;;;;;13.38;100.00;100917.00;5095443;28;20059;-61
2023/08/26 04:32:47;;;;;;;7.28;3.03;;;;;;;13.37;100.00;100932.06;5095010;28;20024;-61
2023/08/26 04:35:13;;;;;;;8.40;3.35;;;;;;;13.32;100.00;100931.16;5095135;28;20077;-62
2023/08/26 04:37:39;;;;;;;8.75;3.38;;;;;;;13.33;100.00;100943.53;5095103;28;20122;-62
2023/08/26 04:40:14;;;;;;;8.60;3.35;;;;;;;13.36;100.00;100938.25;5094594;28;20062;-61
2023/08/26 04:42:40;;;;;;;4.95;3.28;;;;;;;13.35;100.00;100940.88;5076110;28;20032;-61
2023/08/26 04:45:06;;;;;;;7.15;3.63;;;;;;;13.31;100.00;100944.41;5094158;28;20055;-62
2023/08/26 04:47:31;;;;;;;9.32;3.85;;;;;;;13.30;100.00;100940.00;5094415;28;20370;-61
2023/08/26 04:49:58;;;;;;;10.65;4.00;;;;;;;13.33;100.00;100953.28;5094279;28;20028;-62
2023/08/26 04:52:24;;;;;;;7.63;3.83;;;;;;;13.34;100.00;100955.03;5075902;28;20035;-62
2023/08/26 04:54:49;;;;;;;7.13;3.75;;;;;;;13.41;100.00;100951.53;5094327;28;20107;-62
2023/08/26 04:57:14;;;;;;;9.35;3.67;;;;;;;13.41;100.00;100952.41;5094059;28;20043;-62
2023/08/26 04:59:40;;;;;;;7.15;3.20;;;;;;;13.43;100.00;100952.41;5094103;28;20020;-61
2023/08/26 05:02:07;;;;;;;8.55;3.40;;;;;;;13.39;100.00;100963.88;5094027;28;20020;-62
2023/08/26 05:04:33;;;;;;;6.93;3.20;;;;;;;13.35;100.00;100954.16;5094313;28;20047;-61
2023/08/26 05:06:58;;;;;;;5.90;3.20;;;;;;;13.32;100.00;100962.09;5093890;28;20016;-62
2023/08/26 05:09:24;;;;;;;6.82;3.17;;;;;;;13.30;100.00;100962.13;5093640;28;20024;-62
2023/08/26 05:11:49;;;;;;;7.25;3.13;;;;;;;13.30;100.00;100970.06;5094116;28;20032;-61
2023/08/26 05:14:15;;;;;;;6.45;3.17;;;;;;;13.35;100.00;100968.31;5093384;28;20462;-62
2023/08/26 05:16:40;;;;;;;7.65;3.33;;;;;;;13.38;100.00;100956.81;5075545;28;20058;-61
2023/08/26 05:19:05;;;;;;;10.30;3.30;;;;;;;13.39;100.00;100959.47;5093216;28;20062;-61
2023/08/26 05:21:31;;;;;;;9.63;3.45;;;;;;;13.44;100.00;100964.78;5093675;28;20050;-61
2023/08/26 05:23:59;;;;;;;8.75;3.50;;;;;;;13.48;100.00;100970.09;5093708;28;20449;-62
2023/08/26 05:26:24;;;;;;;14.07;3.55;;;;;;;13.51;100.00;100963.91;5093524;28;20534;-62
2023/08/26 05:28:50;;;;;;;7.93;3.13;;;;;;;13.53;100.00;100968.34;5093349;28;20024;-61
2023/08/26 05:31:15;;;;;;;5.18;3.13;;;;;;;13.58;100.00;100963.03;5093364;28;20024;-61
2023/08/26 05:33:40;;;;;;;11.98;3.40;;;;;;;13.61;100.00;100957.69;5093211;28;20028;-62
2023/08/26 05:36:06;;;;;;;9.60;3.38;;;;;;;13.70;100.00;100965.69;5092520;28;20073;-61
2023/08/26 05:38:31;;;;;;;9.23;3.10;;;;;;;13.76;100.00;100968.34;5093075;28;20508;-61
2023/08/26 05:40:56;;;;;;;5.90;3.13;;;;;;;13.80;100.00;100971.00;5093093;28;20028;-61
2023/08/26 05:43:22;;;;;;;7.28;3.28;;;;;;;13.89;100.00;100963.03;5092999;28;20107;-61
2023/08/26 05:45:47;;;;;;;5.30;2.97;;;;;;;13.94;99.86;100959.47;5093497;28;20458;-61
2023/08/26 05:48:13;;;;;;;11.00;3.42;;;;;;;14.04;99.49;100961.22;5093447;28;20492;-62
2023/08/26 05:50:38;;;;;;;9.35;3.22;;;;;;;14.12;98.88;100953.22;5093307;28;20433;-61
2023/08/26 05:53:03;;;;;;;13.57;3.85;;;;;;;14.22;98.44;100949.69;5074987;28;20465;-62
2023/08/26 05:55:29;;;;;;;9.63;3.10;;;;;;;14.33;97.80;100949.63;5092846;28;20028;-62
2023/08/26 05:57:54;;;;;;;9.30;3.80;;;;;;;14.39;97.78;100954.94;5074775;28;20086;-61
2023/08/26 06:00:20;;;;;;;9.10;3.50;;;;;;;14.48;97.40;100951.38;5092878;28;20426;-62
2023/08/26 06:02:45;;;;;;;9.90;3.63;;;;;;;14.63;96.77;100946.00;5092737;28;20111;-62
2023/08/26 06:05:11;;;;;;;7.30;3.50;;;;;;;14.68;95.77;100949.53;5093018;28;20165;-61
2023/08/26 06:07:36;;;;;;;11.20;3.60;;;;;;;14.81;95.83;100954.78;5092997;28;20454;-61
2023/08/26 06:10:02;;;;;;;8.55;3.40;;;;;;;14.91;95.10;100946.78;5092813;28;20492;-61
2023/08/26 06:12:27;;;;;;;7.32;3.35;;;;;;;15.05;95.09;100951.13;5092752;28;20028;-62
2023/08/26 06:14:53;;;;;;;9.45;3.70;;;;;;;15.12;93.74;100953.75;5092515;28;20035;-61
2023/08/26 06:17:18;;;;;;;9.35;4.03;;;;;;;15.16;93.00;100951.94;5092710;28;20077;-62
2023/08/26 06:19:43;;;;;;;7.15;3.47;;;;;;;15.19;92.78;100954.59;5092477;28;20048;-62
2023/08/26 06:22:09;;;;;;;9.88;3.85;;;;;;;15.34;93.34;100946.50;5092810;28;20115;-62
2023/08/26 06:24:35;;;;;;;14.20;4.00;;;;;;;15.45;92.15;100957.94;5092551;28;20035;-62
2023/08/26 06:27:00;;;;;;;8.95;3.45;;;;;;;15.54;91.41;100946.34;5092553;28;20469;-62
2023/08/26 06:29:26;;;;;;;14.57;3.78;;;;;;;15.63;90.17;100950.69;5092664;28;20478;-62
2023/08/26 06:31:51;;;;;;;9.68;3.80;;;;;;;15.64;90.40;100953.41;5092655;28;20115;-62
2023/08/26 06:34:17;;;;;;;8.82;3.53;;;;;;;15.73;90.67;100956.00;5092437;28;20090;-63
2023/08/26 06:36:44;;;;;;;8.88;3.50;;;;;;;15.86;90.96;100958.53;5092672;28;20393;-61
2023/08/26 06:39:11;;;;;;;11.68;3.47;;;;;;;15.96;89.84;100953.09;5092380;28;20032;-62
2023/08/26 06:41:37;;;;;;;9.68;3.42;;;;;;;16.13;89.23;100944.94;5092519;28;20112;-62
2023/08/26 06:44:02;;;;;;;10.52;3.55;;;;;;;16.11;87.70;100960.06;5092256;28;20461;-62
2023/08/26 06:46:28;;;;;;;10.93;3.80;;;;;;;16.17;88.15;100951.13;5093386;28;20050;-62
2023/08/26 06:48:53;;;;;;;9.77;3.60;;;;;;;16.31;88.17;100949.19;5096485;28;20035;-62
2023/08/26 06:51:19;;;;;;;9.50;3.40;;;;;;;16.34;87.34;100941.16;5096574;28;20024;-61
2023/08/26 06:53:45;;;;;;;8.70;3.50;;;;;;;16.48;87.28;100933.84;5096260;28;20139;-62
2023/08/26 06:56:10;;;;;;;8.30;3.30;;;;;;;16.63;86.60;100942.59;5096400;28;20063;-62
2023/08/26 06:58:36;;;;;;;11.32;3.30;;;;;;;16.81;86.58;100942.38;5096601;28;20032;-62
2023/08/26 07:01:02;;;;;;;9.75;3.25;;;;;;;16.94;85.23;100935.97;5096369;28;20056;-62
2023/08/26 07:03:28;;;;;;;6.30;3.13;;;;;;;17.20;85.78;100935.59;5096712;28;20059;-61
2023/08/26 07:05:53;;;;;;;8.70;3.10;;;;;;;17.41;84.78;100944.19;5096548;28;20426;-61
2023/08/26 07:08:19;;;;;;;7.18;3.20;;;;;;;17.57;83.31;100943.03;5096601;28;20390;-62
2023/08/26 07:10:44;;;;;;;9.38;3.05;;;;;;;17.65;82.02;100948.25;5096095;28;20028;-61
2023/08/26 07:13:10;;;;;;;12.82;3.20;;;;;;;17.58;81.17;100951.94;5096222;28;20172;-62
2023/08/26 07:15:36;;;;;;;12.88;3.13;;;;;;;17.77;82.62;100938.28;5095936;28;20539;-61
2023/08/26 07:18:01;;;;;;;8.48;2.88;;;;;;;17.88;81.04;100935.41;5095885;28;20024;-62
2023/08/26 07:20:27;;;;;;;6.10;3.00;;;;;;;17.96;80.63;100946.84;5096106;28;20093;-60
2023/08/26 07:22:53;;;;;;;5.90;2.80;;;;;;;18.17;80.78;100955.38;5077992;28;20484;-62
2023/08/26 07:25:18;;;;;;;6.32;2.85;;;;;;;18.18;79.30;100946.44;5095835;28;20032;-61
2023/08/26 07:27:45;;;;;;;6.30;2.63;;;;;;;18.29;77.94;100955.16;5077988;28;20359;-62
2023/08/26 07:30:11;;;;;;;9.82;3.08;;;;;;;18.42;78.79;100955.81;5095880;28;20134;-62
2023/08/26 07:32:36;;;;;;;10.95;3.22;;;;;;;18.18;77.33;100957.16;5095699;28;20032;-61
2023/08/26 07:35:02;;;;;;;7.75;2.90;;;;;;;18.30;79.22;100950.69;5095708;28;20115;-61
2023/08/26 07:37:29;;;;;;;6.78;2.75;;;;;;;18.49;78.44;100960.09;5095785;28;20470;-62
2023/08/26 07:39:55;;;;;;;7.40;2.67;;;;;;;18.80;78.10;100946.09;5095701;28;20077;-62
2023/08/26 07:42:20;;;;;;;7.10;3.00;;;;;;;18.90;76.72;100947.69;5095402;28;20032;-62
2023/08/26 07:44:46;;;;;;;5.95;2.70;;;;;;;19.06;76.21;100953.56;5095580;28;20020;-61
2023/08/26 07:47:11;;;;;;;7.90;2.60;;;;;;;19.18;75.11;100959.53;5095349;28;20032;-61
2023/08/26 07:49:37;;;;;;;6.90;2.63;;;;;;;19.19;73.72;100960.44;5095457;28;20028;-62
2023/08/26 07:52:02;;;;;;;7.68;2.85;;;;;;;19.32;74.48;100958.34;5095309;28;20109;-61
2023/08/26 07:54:28;;;;;;;6.75;2.50;;;;;;;19.27;73.88;100966.47;5095139;28;20100;-62
2023/08/26 07:56:53;;;;;;;7.45;2.70;;;;;;;19.36;74.70;100962.72;5095676;28;20028;-61
2023/08/26 07:59:19;;;;;;;9.10;2.92;;;;;;;19.49;73.81;100964.19;5094426;28;20034;-61
2023/08/26 08:01:44;;;;;;;9.68;2.63;;;;;;;19.55;73.89;100963.16;5095276;28;20021;-61
2023/08/26 08:04:09;;;;;;;5.80;2.78;;;;;;;19.59;73.57;100968.41;5095234;28;20039;-62
2023/08/26 08:06:35;;;;;;;9.18;2.60;;;;;;;19.66;72.68;100971.84;5095171;28;20039;-63
2023/08/26 08:09:00;;;;;;;7.32;2.50;;;;;;;19.64;73.87;100968.31;5094944;28;20064;-61
2023/08/26 08:11:25;;;;;;;7.47;2.60;;;;;;;19.79;74.61;100962.59;5095141;28;20035;-62
2023/08/26 08:13:51;;;;;;;8.18;2.60;;;;;;;20.05;74.98;100961.03;5094642;28;20034;-61
2023/08/26 08:16:16;;;;;;;8.85;2.30;;;;;;;20.08;72.20;100953.75;5094853;28;20367;-61
2023/08/26 08:18:42;;;;;;;5.88;2.40;;;;;;;20.31;72.76;100954.94;5094640;28;20083;-61
2023/08/26 08:21:08;;;;;;;9.93;2.60;;;;;;;20.36;72.42;100958.38;5094662;28;20440;-61
2023/08/26 08:23:35;;;;;;;8.40;2.50;;;;;;;20.32;71.52;100957.56;5095004;28;20063;-62
2023/08/26 08:26:01;;;;;;;9.35;2.50;;;;;;;20.42;69.37;100952.81;5094693;28;20032;-61
2023/08/26 08:28:26;;;;;;;7.78;2.40;;;;;;;20.50;70.68;100953.53;5076783;28;20085;-61
2023/08/26 08:30:51;;;;;;;6.03;2.40;;;;;;;20.69;70.46;100953.91;5076492;28;20024;-62
2023/08/26 08:33:17;;;;;;;7.05;2.22;;;;;;;20.84;68.82;100953.41;5094991;28;20540;-61
2023/08/26 08:35:42;;;;;;;7.75;2.10;;;;;;;20.91;69.70;100946.94;5094570;28;20495;-61
2023/08/26 08:38:07;;;;;;;7.45;2.55;;;;;;;21.00;68.20;100960.09;5094666;28;20085;-61
2023/08/26 08:40:33;;;;;;;6.05;2.30;;;;;;;21.13;67.87;100954.34;5094371;28;20135;-62
2023/08/26 08:43:02;;;;;;;9.00;2.40;;;;;;;21.18;67.67;100950.56;5094339;28;20017;-61
2023/08/26 08:45:28;;;;;;;6.53;2.30;;;;;;;21.04;66.84;100954.63;5099477;28;20027;-61
2023/08/26 08:47:54;;;;;;;6.68;2.35;;;;;;;21.07;66.52;100951.81;5114928;28;20121;-61
2023/08/26 08:50:21;;;;;;;7.45;2.00;;;;;;;21.30;67.77;100953.81;5114986;28;20028;-61
2023/08/26 08:52:49;;;;;;;6.90;1.95;;;;;;;21.52;64.86;100957.59;5114606;28;20028;-62
2023/08/26 08:55:15;;;;;;;6.00;1.85;;;;;;;21.58;64.62;100959.19;5114569;28;20030;-63
2023/08/26 08:57:42;;;;;;;6.75;1.90;;;;;;;21.63;65.09;100954.56;5114840;28;20032;-61
2023/08/26 09:00:08;;;;;;;6.28;2.03;;;;;;;21.82;64.24;100960.19;5096370;28;20043;-62
2023/08/26 09:02:42;;;;;;;5.78;2.03;;;;;;;21.46;64.24;100968.56;5114558;28;20384;-62
2023/08/26 09:05:09;;;;;;;5.72;2.17;;;;;;;21.41;64.51;100968.72;5114853;28;20032;-62
2023/08/26 09:07:36;;;;;;;5.10;2.20;;;;;;;21.16;64.09;100971.25;5114318;28;20036;-63
2023/08/26 09:10:05;;;;;;;6.03;2.30;;;;;;;21.02;65.13;100977.03;5096269;28;20023;-60
2023/08/26 09:12:31;;;;;;;5.35;2.00;;;;;;;21.11;66.54;100964.25;5114259;28;20047;-62
2023/08/26 09:14:56;;;;;;;6.55;2.30;;;;;;;21.19;65.25;100973.81;5113926;28;20461;-62
2023/08/26 09:17:22;;;;;;;4.40;2.17;;;;;;;21.41;65.27;100973.19;5096335;28;20081;-62
2023/08/26 09:19:55;;;;;;;7.07;2.30;;;;;;;21.52;65.69;100968.34;5113869;28;20071;-61
2023/08/26 09:22:39;;;;;;;2.90;1.95;;;;;;;21.72;65.42;100973.97;5114007;28;20031;-60
2023/08/26 09:25:05;;;;;;;5.78;2.10;;;;;;;21.82;63.61;100987.09;5114269;28;20031;-61
2023/08/26 09:27:39;;;;;;;4.88;1.98;;;;;;;21.84;62.56;100980.75;5114222;28;20102;-61
2023/08/26 09:30:06;;;;;;;6.05;2.00;;;;;;;21.68;61.77;100982.19;5114106;28;20093;-61
2023/08/26 09:32:32;;;;;;;4.68;2.03;;;;;;;21.73;63.69;100983.78;5113961;28;20357;-61
2023/08/26 09:35:14;;;;;;;4.72;2.33;;;;;;;21.63;64.44;100984.16;5114061;28;20032;-61
2023/08/26 09:37:42;;;;;;;5.93;2.20;;;;;;;21.73;63.63;100980.22;5114145;28;20036;-61
2023/08/26 09:40:12;;;;;;;5.45;2.00;;;;;;;21.75;63.50;100991.78;5113686;28;20023;-61
2023/08/26 09:42:39;;;;;;;6.10;2.22;;;;;;;21.60;62.13;100997.69;5114202;28;20023;-61
2023/08/26 09:45:10;;;;;;;5.10;2.00;;;;;;;21.58;60.99;100996.84;5113680;28;20107;-61
2023/08/26 09:47:37;;;;;;;8.32;2.20;;;;;;;21.70;61.19;100989.25;5113710;28;20418;-61
2023/08/26 09:50:06;;;;;;;7.72;2.30;;;;;;;21.93;62.50;100987.63;5113815;28;20039;-61
2023/08/26 09:52:42;;;;;;;4.72;1.90;;;;;;;22.14;62.04;100981.53;5113584;28;20061;-61
2023/08/26 09:55:08;;;;;;;4.82;1.95;;;;;;;22.17;60.28;101013.72;5113690;28;20059;-61
2023/08/26 09:57:34;;;;;;;7.72;2.10;;;;;;;22.27;59.32;100987.38;5113420;28;20065;-61
2023/08/26 09:59:59;;;;;;;4.53;2.15;;;;;;;22.57;60.99;100988.06;5113555;28;20066;-60
2023/08/26 10:02:26;;;;;;;7.15;2.13;;;;;;;22.49;58.95;100988.34;5113278;28;20035;-60
2023/08/26 10:04:56;;;;;;;4.45;2.10;;;;;;;22.42;60.55;100988.63;5113424;28;20036;-61
2023/08/26 10:07:23;;;;;;;4.65;1.90;;;;;;;22.53;59.57;100983.75;5113556;28;20036;-62
2023/08/26 10:09:57;;;;;;;3.72;1.95;;;;;;;22.59;60.02;100986.19;5113390;28;20417;-60
2023/08/26 10:12:30;;;;;;;4.57;1.88;;;;;;;22.53;60.21;100986.44;5113160;28;20120;-61
2023/08/26 10:15:00;;;;;;;9.40;2.00;;;;;;;22.47;58.87;100989.31;5112983;28;20511;-59
2023/08/26 10:17:30;;;;;;;4.78;1.83;;;;;;;22.35;59.24;100987.94;5113354;28;20027;-61
2023/08/26 10:19:57;;;;;;;5.65;2.20;;;;;;;22.25;59.76;100989.22;5112979;28;20125;-61
2023/08/26 10:22:24;;;;;;;4.78;1.98;;;;;;;22.30;59.15;100991.75;5112645;28;20438;-61
2023/08/26 10:24:50;;;;;;;5.10;1.90;;;;;;;22.54;59.69;100993.56;5113091;28;20038;-61
2023/08/26 10:27:16;;;;;;;4.30;1.92;;;;;;;22.59;56.50;100983.50;5113142;28;20377;-60
2023/08/26 10:29:42;;;;;;;5.18;1.98;;;;;;;22.67;57.81;100999.38;5113075;28;20027;-60
2023/08/26 10:32:18;;;;;;;5.50;2.10;;;;;;;22.65;58.27;101002.09;5113254;28;20142;-61
2023/08/26 10:34:59;;;;;;;6.15;1.77;;;;;;;22.72;58.50;100989.31;5113086;28;20110;-61
2023/08/26 10:37:30;;;;;;;3.50;2.00;;;;;;;22.99;60.19;100985.59;5113170;28;20076;-61
2023/08/26 10:39:56;;;;;;;5.28;2.05;;;;;;;23.11;57.43;100988.75;5112698;28;20035;-62
2023/08/26 10:42:23;;;;;;;5.28;1.70;;;;;;;23.08;56.59;100996.94;5113026;28;20032;-61
2023/08/26 10:44:55;;;;;;;6.25;1.90;;;;;;;23.16;57.25;100995.72;5112634;28;20020;-61
2023/08/26 10:47:46;;;;;;;2.47;1.70;;;;;;;23.37;56.13;100985.03;5113211;28;20019;-60
2023/08/26 10:50:15;;;;;;;4.13;2.10;;;;;;;23.33;56.36;100988.78;5112888;28;20028;-60
2023/08/26 10:52:45;;;;;;;3.97;1.90;;;;;;;23.38;54.42;100990.38;5113026;28;20019;-60
2023/08/26 10:55:32;;;;;;;5.50;1.90;;;;;;;23.70;56.23;100986.38;5112856;28;20031;-60
2023/08/26 10:58:06;;;;;;;3.83;1.73;;;;;;;23.77;53.22;100980.72;5112944;28;20076;-60
2023/08/26 11:00:33;;;;;;;5.13;2.00;;;;;;;23.81;55.09;100966.16;5112912;28;20072;-61
2023/08/26 11:02:59;;;;;;;2.83;1.65;;;;;;;23.76;53.46;100965.47;5112892;28;20143;-61
2023/08/26 11:05:25;;;;;;;2.50;1.60;;;;;;;23.91;52.94;100967.53;5112635;28;20031;-60
2023/08/26 11:07:50;;;;;;;2.83;1.80;;;;;;;24.20;53.02;100977.97;5112728;28;20020;-61
2023/08/26 11:10:30;;;;;;;4.45;1.88;;;;;;;24.53;52.87;100968.44;5112604;28;20020;-61
2023/08/26 11:12:56;;;;;;;3.88;1.60;;;;;;;24.54;51.32;100970.19;5112570;28;20032;-60
2023/08/26 11:15:21;;;;;;;3.58;1.90;;;;;;;24.20;51.59;100969.00;5094254;28;20034;-61
2023/08/26 11:17:49;;;;;;;4.50;1.90;;;;;;;23.81;52.22;100955.38;5112594;28;20032;-60
2023/08/26 11:20:16;;;;;;;4.45;2.10;;;;;;;23.59;53.54;100958.94;5112486;28;20493;-61